Weather at Philadelphia International Airport

Public forecast

Using degrees Fahrenheit for public forecast. Weather courtesy of forecast.io.

Current aviation weather report (METAR) for Philadelphia International Airport

2024/04/13 11:54 (retrieved 17 minutes ago)

KPHL 131154Z 28017G30KT 10SM SCT040 OVC140 11/02 A2969 RMK AO2 PK WND 28030/1149 SLP053 60000 70016 T01060017 10133 20106 51027

Aviation forecast (TAF) for Philadelphia International Airport

2024/04/13 12:26 (retrieved 0 seconds ago)

TAF KPHL 131120Z 1312/1418 26018G28KT P6SM VCSH BKN040 FM131400 28022G36KT P6SM BKN040 FM132200 29015G25KT P6SM FEW040 FM140200 28012KT P6SM FEW250 FM141500 23011G22KT P6SM FEW040